sensor_id;sensor_type;location;lat;lon;timestamp;temperature;humidity
7196;DHT22;3639;51.308;5.624;2022-12-18T00:00:55;-5.50;99.90
7196;DHT22;3639;51.308;5.624;2022-12-18T00:03:21;-5.50;99.90
7196;DHT22;3639;51.308;5.624;2022-12-18T00:05:50;-5.50;99.90
7196;DHT22;3639;51.308;5.624;2022-12-18T00:08:17;-5.50;99.90
7196;DHT22;3639;51.308;5.624;2022-12-18T00:10:43;-5.50;99.90
7196;DHT22;3639;51.308;5.624;2022-12-18T00:13:09;-5.60;99.90
7196;DHT22;3639;51.308;5.624;2022-12-18T00:15:35;-5.60;99.90
7196;DHT22;3639;51.308;5.624;2022-12-18T00:18:01;-5.60;99.90
7196;DHT22;3639;51.308;5.624;2022-12-18T00:20:27;-5.60;99.90
7196;DHT22;3639;51.308;5.624;2022-12-18T00:22:53;-5.70;99.90
7196;DHT22;3639;51.308;5.624;2022-12-18T00:25:19;-5.70;99.90
7196;DHT22;3639;51.308;5.624;2022-12-18T00:27:45;-5.70;99.90
7196;DHT22;3639;51.308;5.624;2022-12-18T00:30:11;-5.80;99.90
7196;DHT22;3639;51.308;5.624;2022-12-18T00:32:36;-5.80;99.90
7196;DHT22;3639;51.308;5.624;2022-12-18T00:35:03;-5.90;99.90
7196;DHT22;3639;51.308;5.624;2022-12-18T00:37:29;-5.90;99.90
7196;DHT22;3639;51.308;5.624;2022-12-18T00:39:55;-5.90;99.90
7196;DHT22;3639;51.308;5.624;2022-12-18T00:42:20;-5.90;99.90
7196;DHT22;3639;51.308;5.624;2022-12-18T00:45:05;-5.90;99.90
7196;DHT22;3639;51.308;5.624;2022-12-18T00:47:31;-6.00;99.90
7196;DHT22;3639;51.308;5.624;2022-12-18T00:49:57;-6.00;99.90
7196;DHT22;3639;51.308;5.624;2022-12-18T00:52:22;-6.00;99.90
7196;DHT22;3639;51.308;5.624;2022-12-18T00:54:48;-6.00;99.90
7196;DHT22;3639;51.308;5.624;2022-12-18T00:57:13;-6.00;99.90
7196;DHT22;3639;51.308;5.624;2022-12-18T00:59:39;-6.10;99.90
7196;DHT22;3639;51.308;5.624;2022-12-18T01:02:04;-6.10;99.90
7196;DHT22;3639;51.308;5.624;2022-12-18T01:04:34;-6.20;99.90
7196;DHT22;3639;51.308;5.624;2022-12-18T01:06:59;-6.20;99.90
7196;DHT22;3639;51.308;5.624;2022-12-18T01:09:26;-6.30;99.90
7196;DHT22;3639;51.308;5.624;2022-12-18T01:11:52;-6.30;99.90
7196;DHT22;3639;51.308;5.624;2022-12-18T01:14:17;-6.30;99.90
7196;DHT22;3639;51.308;5.624;2022-12-18T01:16:43;-6.30;99.90
7196;DHT22;3639;51.308;5.624;2022-12-18T01:19:10;-6.20;99.90
7196;DHT22;3639;51.308;5.624;2022-12-18T01:21:36;-6.30;99.90
7196;DHT22;3639;51.308;5.624;2022-12-18T01:24:01;-6.30;99.90
7196;DHT22;3639;51.308;5.624;2022-12-18T01:26:27;-6.30;99.90
7196;DHT22;3639;51.308;5.624;2022-12-18T01:28:55;-6.40;99.90
7196;DHT22;3639;51.308;5.624;2022-12-18T01:31:27;-6.40;99.90
7196;DHT22;3639;51.308;5.624;2022-12-18T01:33:54;-6.40;99.90
7196;DHT22;3639;51.308;5.624;2022-12-18T01:36:22;-6.50;99.90
7196;DHT22;3639;51.308;5.624;2022-12-18T01:38:48;-6.40;99.90
7196;DHT22;3639;51.308;5.624;2022-12-18T01:41:16;-6.40;99.90
7196;DHT22;3639;51.308;5.624;2022-12-18T01:43:55;-6.40;99.90
7196;DHT22;3639;51.308;5.624;2022-12-18T01:46:22;-6.40;99.90
7196;DHT22;3639;51.308;5.624;2022-12-18T01:48:51;-6.40;99.90
7196;DHT22;3639;51.308;5.624;2022-12-18T01:51:17;-6.50;99.90
7196;DHT22;3639;51.308;5.624;2022-12-18T01:53:44;-6.50;99.90
7196;DHT22;3639;51.308;5.624;2022-12-18T01:56:19;-6.50;99.90
7196;DHT22;3639;51.308;5.624;2022-12-18T01:59:04;-6.50;99.90
7196;DHT22;3639;51.308;5.624;2022-12-18T02:01:31;-6.50;99.90
7196;DHT22;3639;51.308;5.624;2022-12-18T02:04:21;-6.40;99.90
7196;DHT22;3639;51.308;5.624;2022-12-18T02:06:52;-6.40;99.90
7196;DHT22;3639;51.308;5.624;2022-12-18T02:09:28;-6.40;99.90
7196;DHT22;3639;51.308;5.624;2022-12-18T02:12:19;-6.40;99.90
7196;DHT22;3639;51.308;5.624;2022-12-18T02:17:30;-6.40;99.90
7196;DHT22;3639;51.308;5.624;2022-12-18T02:23:13;-6.60;99.90
7196;DHT22;3639;51.308;5.624;2022-12-18T02:26:09;-6.60;99.90
7196;DHT22;3639;51.308;5.624;2022-12-18T02:28:45;-6.60;99.90
7196;DHT22;3639;51.308;5.624;2022-12-18T02:31:18;-6.70;99.90
7196;DHT22;3639;51.308;5.624;2022-12-18T02:33:45;-6.70;99.90
7196;DHT22;3639;51.308;5.624;2022-12-18T02:36:13;-6.70;99.90
7196;DHT22;3639;51.308;5.624;2022-12-18T02:38:41;-6.70;99.90
7196;DHT22;3639;51.308;5.624;2022-12-18T02:41:07;-6.70;99.90
7196;DHT22;3639;51.308;5.624;2022-12-18T02:43:33;-6.80;99.90
7196;DHT22;3639;51.308;5.624;2022-12-18T02:46:00;-6.90;99.90
7196;DHT22;3639;51.308;5.624;2022-12-18T02:48:33;-6.90;99.90
7196;DHT22;3639;51.308;5.624;2022-12-18T02:51:10;-6.90;99.90
7196;DHT22;3639;51.308;5.624;2022-12-18T02:53:45;-6.90;99.90
7196;DHT22;3639;51.308;5.624;2022-12-18T02:56:23;-6.90;99.90
7196;DHT22;3639;51.308;5.624;2022-12-18T02:59:06;-7.00;99.90
7196;DHT22;3639;51.308;5.624;2022-12-18T03:04:18;-6.90;99.90
7196;DHT22;3639;51.308;5.624;2022-12-18T03:06:49;-7.00;99.90
7196;DHT22;3639;51.308;5.624;2022-12-18T03:09:22;-7.00;99.90
7196;DHT22;3639;51.308;5.624;2022-12-18T03:11:55;-7.00;99.90
7196;DHT22;3639;51.308;5.624;2022-12-18T03:14:42;-7.10;99.90
7196;DHT22;3639;51.308;5.624;2022-12-18T03:17:11;-7.10;99.90
7196;DHT22;3639;51.308;5.624;2022-12-18T03:19:38;-7.20;99.90
7196;DHT22;3639;51.308;5.624;2022-12-18T03:22:06;-7.20;99.90
7196;DHT22;3639;51.308;5.624;2022-12-18T03:24:33;-7.20;99.90
7196;DHT22;3639;51.308;5.624;2022-12-18T03:27:06;-7.20;99.90
7196;DHT22;3639;51.308;5.624;2022-12-18T03:29:36;-7.20;99.90
7196;DHT22;3639;51.308;5.624;2022-12-18T03:32:08;-7.30;99.90
7196;DHT22;3639;51.308;5.624;2022-12-18T03:34:38;-7.30;99.90
7196;DHT22;3639;51.308;5.624;2022-12-18T03:37:05;-7.30;99.90
7196;DHT22;3639;51.308;5.624;2022-12-18T03:39:31;-7.30;99.90
7196;DHT22;3639;51.308;5.624;2022-12-18T03:47:10;-7.20;99.90
7196;DHT22;3639;51.308;5.624;2022-12-18T03:52:13;-7.10;99.90
7196;DHT22;3639;51.308;5.624;2022-12-18T03:54:43;-7.10;99.90
7196;DHT22;3639;51.308;5.624;2022-12-18T03:57:13;-7.10;99.90
7196;DHT22;3639;51.308;5.624;2022-12-18T03:59:40;-7.10;99.90
7196;DHT22;3639;51.308;5.624;2022-12-18T04:02:07;-7.10;99.90
7196;DHT22;3639;51.308;5.624;2022-12-18T04:04:36;-7.10;99.90
7196;DHT22;3639;51.308;5.624;2022-12-18T04:07:03;-7.10;99.90
7196;DHT22;3639;51.308;5.624;2022-12-18T04:09:30;-7.20;99.90
7196;DHT22;3639;51.308;5.624;2022-12-18T04:11:57;-7.20;99.90
7196;DHT22;3639;51.308;5.624;2022-12-18T04:14:22;-7.20;99.90
7196;DHT22;3639;51.308;5.624;2022-12-18T04:16:48;-7.20;99.90
7196;DHT22;3639;51.308;5.624;2022-12-18T04:19:14;-7.20;99.90
7196;DHT22;3639;51.308;5.624;2022-12-18T04:21:39;-7.20;99.90
7196;DHT22;3639;51.308;5.624;2022-12-18T04:24:05;-7.20;99.90
7196;DHT22;3639;51.308;5.624;2022-12-18T04:26:31;-7.10;99.90
7196;DHT22;3639;51.308;5.624;2022-12-18T04:28:56;-7.10;99.90
7196;DHT22;3639;51.308;5.624;2022-12-18T04:31:22;-7.10;99.90
7196;DHT22;3639;51.308;5.624;2022-12-18T04:33:48;-7.10;99.90
7196;DHT22;3639;51.308;5.624;2022-12-18T04:36:13;-7.10;99.90
7196;DHT22;3639;51.308;5.624;2022-12-18T04:38:39;-7.00;99.90
7196;DHT22;3639;51.308;5.624;2022-12-18T04:41:05;-7.00;99.90
7196;DHT22;3639;51.308;5.624;2022-12-18T04:43:30;-7.00;99.90
7196;DHT22;3639;51.308;5.624;2022-12-18T04:46:06;-7.00;99.90
7196;DHT22;3639;51.308;5.624;2022-12-18T04:48:34;-7.00;99.90
7196;DHT22;3639;51.308;5.624;2022-12-18T04:50:59;-7.00;99.90
7196;DHT22;3639;51.308;5.624;2022-12-18T04:53:25;-7.00;99.90
7196;DHT22;3639;51.308;5.624;2022-12-18T04:55:51;-7.00;99.90
7196;DHT22;3639;51.308;5.624;2022-12-18T04:58:26;-7.10;99.90
7196;DHT22;3639;51.308;5.624;2022-12-18T05:00:52;-7.10;99.90
7196;DHT22;3639;51.308;5.624;2022-12-18T05:03:18;-7.00;99.90
7196;DHT22;3639;51.308;5.624;2022-12-18T05:05:43;-7.00;99.90
7196;DHT22;3639;51.308;5.624;2022-12-18T05:08:09;-7.00;99.90
7196;DHT22;3639;51.308;5.624;2022-12-18T05:10:34;-7.00;99.90
7196;DHT22;3639;51.308;5.624;2022-12-18T05:13:00;-7.00;99.90
7196;DHT22;3639;51.308;5.624;2022-12-18T05:15:31;-7.00;99.90
7196;DHT22;3639;51.308;5.624;2022-12-18T05:17:58;-7.00;99.90
7196;DHT22;3639;51.308;5.624;2022-12-18T05:20:24;-7.00;99.90
7196;DHT22;3639;51.308;5.624;2022-12-18T05:22:51;-7.00;99.90
7196;DHT22;3639;51.308;5.624;2022-12-18T05:25:16;-7.00;99.90
7196;DHT22;3639;51.308;5.624;2022-12-18T05:27:42;-7.00;99.90
7196;DHT22;3639;51.308;5.624;2022-12-18T05:30:09;-7.00;99.90
7196;DHT22;3639;51.308;5.624;2022-12-18T05:32:35;-7.00;99.90
7196;DHT22;3639;51.308;5.624;2022-12-18T05:35:01;-7.00;99.90
7196;DHT22;3639;51.308;5.624;2022-12-18T05:37:26;-7.00;99.90
7196;DHT22;3639;51.308;5.624;2022-12-18T05:39:52;-7.00;99.90
7196;DHT22;3639;51.308;5.624;2022-12-18T05:42:18;-7.00;99.90
7196;DHT22;3639;51.308;5.624;2022-12-18T05:44:44;-7.00;99.90
7196;DHT22;3639;51.308;5.624;2022-12-18T05:47:09;-7.00;99.90
7196;DHT22;3639;51.308;5.624;2022-12-18T05:49:35;-7.00;99.90
7196;DHT22;3639;51.308;5.624;2022-12-18T05:52:01;-7.00;99.90
7196;DHT22;3639;51.308;5.624;2022-12-18T05:54:29;-7.00;99.90
7196;DHT22;3639;51.308;5.624;2022-12-18T05:56:55;-7.00;99.90
7196;DHT22;3639;51.308;5.624;2022-12-18T05:59:21;-7.00;99.90
7196;DHT22;3639;51.308;5.624;2022-12-18T06:01:46;-7.00;99.90
7196;DHT22;3639;51.308;5.624;2022-12-18T06:04:12;-7.00;99.90
7196;DHT22;3639;51.308;5.624;2022-12-18T06:06:38;-7.00;99.90
7196;DHT22;3639;51.308;5.624;2022-12-18T06:09:04;-7.00;99.90
7196;DHT22;3639;51.308;5.624;2022-12-18T06:11:35;-7.00;99.90
7196;DHT22;3639;51.308;5.624;2022-12-18T06:14:01;-7.00;99.90
7196;DHT22;3639;51.308;5.624;2022-12-18T06:16:28;-7.00;99.90
7196;DHT22;3639;51.308;5.624;2022-12-18T06:18:59;-7.10;99.90
7196;DHT22;3639;51.308;5.624;2022-12-18T06:21:25;-7.00;99.90
7196;DHT22;3639;51.308;5.624;2022-12-18T06:23:51;-7.00;99.90
7196;DHT22;3639;51.308;5.624;2022-12-18T06:26:17;-7.10;99.90
7196;DHT22;3639;51.308;5.624;2022-12-18T06:28:42;-7.00;99.90
7196;DHT22;3639;51.308;5.624;2022-12-18T06:31:08;-7.10;99.90
7196;DHT22;3639;51.308;5.624;2022-12-18T06:33:35;-7.10;99.90
7196;DHT22;3639;51.308;5.624;2022-12-18T06:36:09;-7.20;99.90
7196;DHT22;3639;51.308;5.624;2022-12-18T06:38:36;-7.20;99.90
7196;DHT22;3639;51.308;5.624;2022-12-18T06:41:17;-7.20;99.90
7196;DHT22;3639;51.308;5.624;2022-12-18T06:43:43;-7.20;99.90
7196;DHT22;3639;51.308;5.624;2022-12-18T06:46:09;-7.20;99.90
7196;DHT22;3639;51.308;5.624;2022-12-18T06:48:35;-7.20;99.90
7196;DHT22;3639;51.308;5.624;2022-12-18T06:51:01;-7.30;99.90
7196;DHT22;3639;51.308;5.624;2022-12-18T06:53:27;-7.30;99.90
7196;DHT22;3639;51.308;5.624;2022-12-18T06:55:59;-7.30;99.90
7196;DHT22;3639;51.308;5.624;2022-12-18T06:58:24;-7.30;99.90
7196;DHT22;3639;51.308;5.624;2022-12-18T07:00:50;-7.30;99.90
7196;DHT22;3639;51.308;5.624;2022-12-18T07:03:15;-7.30;99.90
7196;DHT22;3639;51.308;5.624;2022-12-18T07:05:41;-7.30;99.90
7196;DHT22;3639;51.308;5.624;2022-12-18T07:08:07;-7.30;99.90
7196;DHT22;3639;51.308;5.624;2022-12-18T07:10:32;-7.30;99.90
7196;DHT22;3639;51.308;5.624;2022-12-18T07:12:58;-7.30;99.90
7196;DHT22;3639;51.308;5.624;2022-12-18T07:15:23;-7.30;99.90
7196;DHT22;3639;51.308;5.624;2022-12-18T07:17:49;-7.30;99.90
7196;DHT22;3639;51.308;5.624;2022-12-18T07:20:15;-7.30;99.90
7196;DHT22;3639;51.308;5.624;2022-12-18T07:22:40;-7.30;99.90
7196;DHT22;3639;51.308;5.624;2022-12-18T07:25:06;-7.30;99.90
7196;DHT22;3639;51.308;5.624;2022-12-18T07:27:32;-7.30;99.90
7196;DHT22;3639;51.308;5.624;2022-12-18T07:29:58;-7.30;99.90
7196;DHT22;3639;51.308;5.624;2022-12-18T07:32:23;-7.30;99.90
7196;DHT22;3639;51.308;5.624;2022-12-18T07:34:49;-7.30;99.90
7196;DHT22;3639;51.308;5.624;2022-12-18T07:37:14;-7.30;99.90
7196;DHT22;3639;51.308;5.624;2022-12-18T07:39:40;-7.30;99.90
7196;DHT22;3639;51.308;5.624;2022-12-18T07:42:07;-7.30;99.90
7196;DHT22;3639;51.308;5.624;2022-12-18T07:44:51;-7.20;99.90
7196;DHT22;3639;51.308;5.624;2022-12-18T07:47:17;-7.20;99.90
7196;DHT22;3639;51.308;5.624;2022-12-18T07:49:42;-7.20;99.90
7196;DHT22;3639;51.308;5.624;2022-12-18T07:52:08;-7.10;99.90
7196;DHT22;3639;51.308;5.624;2022-12-18T07:54:34;-7.10;99.90
7196;DHT22;3639;51.308;5.624;2022-12-18T07:57:00;-7.00;99.90
7196;DHT22;3639;51.308;5.624;2022-12-18T07:59:26;-7.00;99.90
7196;DHT22;3639;51.308;5.624;2022-12-18T08:01:51;-6.90;99.90
7196;DHT22;3639;51.308;5.624;2022-12-18T08:04:17;-6.90;99.90
7196;DHT22;3639;51.308;5.624;2022-12-18T08:06:42;-6.80;99.90
7196;DHT22;3639;51.308;5.624;2022-12-18T08:09:10;-6.70;99.90
7196;DHT22;3639;51.308;5.624;2022-12-18T08:11:35;-6.70;99.90
7196;DHT22;3639;51.308;5.624;2022-12-18T08:14:01;-6.60;99.90
7196;DHT22;3639;51.308;5.624;2022-12-18T08:16:27;-6.60;99.90
7196;DHT22;3639;51.308;5.624;2022-12-18T08:18:53;-6.60;99.90
7196;DHT22;3639;51.308;5.624;2022-12-18T08:21:21;-6.50;99.90
7196;DHT22;3639;51.308;5.624;2022-12-18T08:23:49;-6.40;99.90
7196;DHT22;3639;51.308;5.624;2022-12-18T08:26:14;-6.40;99.90
7196;DHT22;3639;51.308;5.624;2022-12-18T08:28:41;-6.30;99.90
7196;DHT22;3639;51.308;5.624;2022-12-18T08:31:07;-6.30;99.90
7196;DHT22;3639;51.308;5.624;2022-12-18T08:33:33;-6.20;99.90
7196;DHT22;3639;51.308;5.624;2022-12-18T08:35:59;-6.10;99.90
7196;DHT22;3639;51.308;5.624;2022-12-18T08:38:25;-6.10;99.90
7196;DHT22;3639;51.308;5.624;2022-12-18T08:41:01;-6.00;99.90
7196;DHT22;3639;51.308;5.624;2022-12-18T08:43:27;-5.90;99.90
7196;DHT22;3639;51.308;5.624;2022-12-18T08:46:12;-5.90;99.90
7196;DHT22;3639;51.308;5.624;2022-12-18T08:48:38;-5.80;99.90
7196;DHT22;3639;51.308;5.624;2022-12-18T08:51:03;-5.80;99.90
7196;DHT22;3639;51.308;5.624;2022-12-18T08:53:29;-5.70;99.90
7196;DHT22;3639;51.308;5.624;2022-12-18T08:55:56;-5.70;99.90
7196;DHT22;3639;51.308;5.624;2022-12-18T08:58:22;-5.60;99.90
7196;DHT22;3639;51.308;5.624;2022-12-18T09:00:48;-5.50;99.90
7196;DHT22;3639;51.308;5.624;2022-12-18T09:03:18;-5.50;99.90
7196;DHT22;3639;51.308;5.624;2022-12-18T09:05:47;-5.40;99.90
7196;DHT22;3639;51.308;5.624;2022-12-18T09:08:13;-5.30;99.90
7196;DHT22;3639;51.308;5.624;2022-12-18T09:10:43;-5.20;99.90
7196;DHT22;3639;51.308;5.624;2022-12-18T09:13:10;-5.20;99.90
7196;DHT22;3639;51.308;5.624;2022-12-18T09:15:43;-5.10;99.90
7196;DHT22;3639;51.308;5.624;2022-12-18T09:18:11;-5.00;99.90
7196;DHT22;3639;51.308;5.624;2022-12-18T09:20:37;-4.90;99.90
7196;DHT22;3639;51.308;5.624;2022-12-18T09:23:04;-4.90;99.90
7196;DHT22;3639;51.308;5.624;2022-12-18T09:25:30;-4.70;99.90
7196;DHT22;3639;51.308;5.624;2022-12-18T09:28:02;-4.70;99.90
7196;DHT22;3639;51.308;5.624;2022-12-18T09:30:27;-4.60;99.90
7196;DHT22;3639;51.308;5.624;2022-12-18T09:32:53;-4.60;99.90
7196;DHT22;3639;51.308;5.624;2022-12-18T09:35:19;-4.50;99.90
7196;DHT22;3639;51.308;5.624;2022-12-18T09:37:44;-4.50;99.90
7196;DHT22;3639;51.308;5.624;2022-12-18T09:40:16;-4.40;99.90
7196;DHT22;3639;51.308;5.624;2022-12-18T09:42:47;-4.30;99.90
7196;DHT22;3639;51.308;5.624;2022-12-18T09:45:15;-4.30;99.90
7196;DHT22;3639;51.308;5.624;2022-12-18T09:47:43;-4.20;99.90
7196;DHT22;3639;51.308;5.624;2022-12-18T09:50:34;-4.10;99.90
7196;DHT22;3639;51.308;5.624;2022-12-18T09:53:26;-4.00;99.90
7196;DHT22;3639;51.308;5.624;2022-12-18T09:55:51;-4.00;99.90
7196;DHT22;3639;51.308;5.624;2022-12-18T10:00:56;-3.80;99.90
7196;DHT22;3639;51.308;5.624;2022-12-18T10:03:22;-3.80;99.90
7196;DHT22;3639;51.308;5.624;2022-12-18T10:06:02;-3.70;99.90
7196;DHT22;3639;51.308;5.624;2022-12-18T10:08:49;-3.60;99.90
7196;DHT22;3639;51.308;5.624;2022-12-18T10:19:28;-3.30;99.90
7196;DHT22;3639;51.308;5.624;2022-12-18T10:22:26;-3.20;99.90
7196;DHT22;3639;51.308;5.624;2022-12-18T10:25:34;-3.10;99.90
7196;DHT22;3639;51.308;5.624;2022-12-18T10:27:54;-3.10;99.90
7196;DHT22;3639;51.308;5.624;2022-12-18T10:30:23;-3.00;99.90
7196;DHT22;3639;51.308;5.624;2022-12-18T10:32:50;-2.90;99.90
7196;DHT22;3639;51.308;5.624;2022-12-18T10:35:24;-2.80;99.90
7196;DHT22;3639;51.308;5.624;2022-12-18T10:41:00;-2.70;99.90
7196;DHT22;3639;51.308;5.624;2022-12-18T10:43:30;-2.60;99.90
7196;DHT22;3639;51.308;5.624;2022-12-18T10:51:08;-2.50;99.90
7196;DHT22;3639;51.308;5.624;2022-12-18T10:53:35;-2.40;99.90
7196;DHT22;3639;51.308;5.624;2022-12-18T10:56:04;-2.40;99.90
7196;DHT22;3639;51.308;5.624;2022-12-18T10:58:33;-2.40;99.90
7196;DHT22;3639;51.308;5.624;2022-12-18T11:01:18;-2.40;99.90
7196;DHT22;3639;51.308;5.624;2022-12-18T11:06:23;-2.30;99.90
7196;DHT22;3639;51.308;5.624;2022-12-18T11:11:52;-2.20;99.90
7196;DHT22;3639;51.308;5.624;2022-12-18T11:14:27;-2.10;99.90
7196;DHT22;3639;51.308;5.624;2022-12-18T11:16:54;-2.00;99.90
7196;DHT22;3639;51.308;5.624;2022-12-18T11:19:36;-2.00;99.90
7196;DHT22;3639;51.308;5.624;2022-12-18T11:22:27;-1.90;99.90
7196;DHT22;3639;51.308;5.624;2022-12-18T11:27:23;-1.80;99.90
7196;DHT22;3639;51.308;5.624;2022-12-18T11:29:50;-1.80;99.90
7196;DHT22;3639;51.308;5.624;2022-12-18T11:32:44;-1.70;99.90
7196;DHT22;3639;51.308;5.624;2022-12-18T11:35:21;-1.70;99.90
7196;DHT22;3639;51.308;5.624;2022-12-18T11:37:54;-1.70;99.90
7196;DHT22;3639;51.308;5.624;2022-12-18T11:40:30;-1.80;99.90
7196;DHT22;3639;51.308;5.624;2022-12-18T11:43:10;-1.70;99.90
7196;DHT22;3639;51.308;5.624;2022-12-18T11:45:56;-1.60;99.90
7196;DHT22;3639;51.308;5.624;2022-12-18T11:48:31;-1.60;99.90
7196;DHT22;3639;51.308;5.624;2022-12-18T11:51:00;-1.50;99.90
7196;DHT22;3639;51.308;5.624;2022-12-18T11:53:28;-1.50;99.90
7196;DHT22;3639;51.308;5.624;2022-12-18T12:01:27;-1.40;99.90
7196;DHT22;3639;51.308;5.624;2022-12-18T12:07:12;-1.20;99.90
7196;DHT22;3639;51.308;5.624;2022-12-18T12:15:57;-1.20;99.90
7196;DHT22;3639;51.308;5.624;2022-12-18T12:21:07;-1.10;99.90
7196;DHT22;3639;51.308;5.624;2022-12-18T12:31:16;-1.00;99.90
7196;DHT22;3639;51.308;5.624;2022-12-18T12:39:35;-0.90;99.90
7196;DHT22;3639;51.308;5.624;2022-12-18T12:42:08;-0.80;99.90
7196;DHT22;3639;51.308;5.624;2022-12-18T12:44:57;-0.70;99.90
7196;DHT22;3639;51.308;5.624;2022-12-18T12:47:42;-0.70;99.90
7196;DHT22;3639;51.308;5.624;2022-12-18T12:50:15;-0.70;99.90
7196;DHT22;3639;51.308;5.624;2022-12-18T12:52:47;-0.70;99.90
7196;DHT22;3639;51.308;5.624;2022-12-18T12:55:25;-0.70;99.90
7196;DHT22;3639;51.308;5.624;2022-12-18T13:01:09;-0.60;99.90
7196;DHT22;3639;51.308;5.624;2022-12-18T13:04:02;-0.60;99.90
7196;DHT22;3639;51.308;5.624;2022-12-18T13:09:12;-0.50;99.90
7196;DHT22;3639;51.308;5.624;2022-12-18T13:11:42;-0.50;99.90
7196;DHT22;3639;51.308;5.624;2022-12-18T13:14:37;-0.50;99.90
7196;DHT22;3639;51.308;5.624;2022-12-18T13:19:44;-0.50;99.90
7196;DHT22;3639;51.308;5.624;2022-12-18T13:22:28;-0.50;99.90
7196;DHT22;3639;51.308;5.624;2022-12-18T13:24:54;-0.40;99.90
7196;DHT22;3639;51.308;5.624;2022-12-18T13:41:00;-0.30;99.90
7196;DHT22;3639;51.308;5.624;2022-12-18T13:43:45;-0.40;99.90
7196;DHT22;3639;51.308;5.624;2022-12-18T13:46:23;-0.40;99.90
7196;DHT22;3639;51.308;5.624;2022-12-18T13:49:43;-0.40;99.90
7196;DHT22;3639;51.308;5.624;2022-12-18T13:51:47;-0.40;99.90
7196;DHT22;3639;51.308;5.624;2022-12-18T13:56:51;-0.40;99.90
7196;DHT22;3639;51.308;5.624;2022-12-18T13:59:21;-0.40;99.90
7196;DHT22;3639;51.308;5.624;2022-12-18T14:01:56;-0.40;99.90
7196;DHT22;3639;51.308;5.624;2022-12-18T14:04:26;-0.40;99.90
7196;DHT22;3639;51.308;5.624;2022-12-18T14:06:56;-0.40;99.90
7196;DHT22;3639;51.308;5.624;2022-12-18T14:09:29;-0.40;99.90
7196;DHT22;3639;51.308;5.624;2022-12-18T14:11:56;-0.40;99.90
7196;DHT22;3639;51.308;5.624;2022-12-18T14:14:45;-0.40;99.90
7196;DHT22;3639;51.308;5.624;2022-12-18T14:17:13;-0.30;99.90
7196;DHT22;3639;51.308;5.624;2022-12-18T14:19:44;-0.30;99.90
7196;DHT22;3639;51.308;5.624;2022-12-18T14:22:25;-0.40;99.90
7196;DHT22;3639;51.308;5.624;2022-12-18T14:27:52;-0.40;99.90
7196;DHT22;3639;51.308;5.624;2022-12-18T14:30:42;-0.30;99.90
7196;DHT22;3639;51.308;5.624;2022-12-18T14:35:36;-0.30;99.90
7196;DHT22;3639;51.308;5.624;2022-12-18T14:41:05;-0.30;99.90
7196;DHT22;3639;51.308;5.624;2022-12-18T14:43:34;-0.30;99.90
7196;DHT22;3639;51.308;5.624;2022-12-18T14:46:02;-0.30;99.90
7196;DHT22;3639;51.308;5.624;2022-12-18T14:48:40;-0.30;99.90
7196;DHT22;3639;51.308;5.624;2022-12-18T14:51:13;-0.30;99.90
7196;DHT22;3639;51.308;5.624;2022-12-18T14:53:43;-0.30;99.90
7196;DHT22;3639;51.308;5.624;2022-12-18T14:58:55;-0.20;99.90
7196;DHT22;3639;51.308;5.624;2022-12-18T15:01:27;-0.20;99.90
7196;DHT22;3639;51.308;5.624;2022-12-18T15:03:54;-0.20;99.90
7196;DHT22;3639;51.308;5.624;2022-12-18T15:08:54;-0.30;99.90
7196;DHT22;3639;51.308;5.624;2022-12-18T15:11:44;-0.30;99.90
7196;DHT22;3639;51.308;5.624;2022-12-18T15:14:33;-0.30;99.90
7196;DHT22;3639;51.308;5.624;2022-12-18T15:17:01;-0.40;99.90
7196;DHT22;3639;51.308;5.624;2022-12-18T15:19:40;-0.40;99.90
7196;DHT22;3639;51.308;5.624;2022-12-18T15:22:35;-0.40;99.90
7196;DHT22;3639;51.308;5.624;2022-12-18T15:25:20;-0.40;99.90
7196;DHT22;3639;51.308;5.624;2022-12-18T15:27:48;-0.50;99.90
7196;DHT22;3639;51.308;5.624;2022-12-18T15:30:19;-0.40;99.90
7196;DHT22;3639;51.308;5.624;2022-12-18T15:32:45;-0.40;99.90
7196;DHT22;3639;51.308;5.624;2022-12-18T15:35:16;-0.50;99.90
7196;DHT22;3639;51.308;5.624;2022-12-18T15:37:43;-0.40;99.90
7196;DHT22;3639;51.308;5.624;2022-12-18T15:40:13;-0.40;99.90
7196;DHT22;3639;51.308;5.624;2022-12-18T15:42:39;-0.30;99.90
7196;DHT22;3639;51.308;5.624;2022-12-18T15:45:24;-0.40;99.90
7196;DHT22;3639;51.308;5.624;2022-12-18T15:47:49;-0.40;99.90
7196;DHT22;3639;51.308;5.624;2022-12-18T15:50:15;-0.40;99.90
7196;DHT22;3639;51.308;5.624;2022-12-18T15:52:49;-0.40;99.90
7196;DHT22;3639;51.308;5.624;2022-12-18T15:55:19;-0.40;99.90
7196;DHT22;3639;51.308;5.624;2022-12-18T15:58:04;-0.40;99.90
7196;DHT22;3639;51.308;5.624;2022-12-18T16:00:30;-0.40;99.90
7196;DHT22;3639;51.308;5.624;2022-12-18T16:02:56;-0.50;99.90
7196;DHT22;3639;51.308;5.624;2022-12-18T16:05:23;-0.50;99.90
7196;DHT22;3639;51.308;5.624;2022-12-18T16:07:49;-0.40;99.90
7196;DHT22;3639;51.308;5.624;2022-12-18T16:10:15;-0.50;99.90
7196;DHT22;3639;51.308;5.624;2022-12-18T16:12:41;-0.40;99.90
7196;DHT22;3639;51.308;5.624;2022-12-18T16:15:07;-0.40;99.90
7196;DHT22;3639;51.308;5.624;2022-12-18T16:17:33;-0.30;99.90
7196;DHT22;3639;51.308;5.624;2022-12-18T16:19:59;-0.40;99.90
7196;DHT22;3639;51.308;5.624;2022-12-18T16:22:29;-0.40;99.90
7196;DHT22;3639;51.308;5.624;2022-12-18T16:24:56;-0.50;99.90
7196;DHT22;3639;51.308;5.624;2022-12-18T16:27:23;-0.50;99.90
7196;DHT22;3639;51.308;5.624;2022-12-18T16:29:49;-0.50;99.90
7196;DHT22;3639;51.308;5.624;2022-12-18T16:32:18;-0.40;99.90
7196;DHT22;3639;51.308;5.624;2022-12-18T16:34:45;-0.50;99.90
7196;DHT22;3639;51.308;5.624;2022-12-18T16:37:12;-0.40;99.90
7196;DHT22;3639;51.308;5.624;2022-12-18T16:39:39;-0.40;99.90
7196;DHT22;3639;51.308;5.624;2022-12-18T16:42:14;-0.50;99.90
7196;DHT22;3639;51.308;5.624;2022-12-18T16:44:42;-0.50;99.90
7196;DHT22;3639;51.308;5.624;2022-12-18T16:47:08;-0.50;99.90
7196;DHT22;3639;51.308;5.624;2022-12-18T16:49:34;-0.40;99.90
7196;DHT22;3639;51.308;5.624;2022-12-18T16:52:00;-0.40;99.90
7196;DHT22;3639;51.308;5.624;2022-12-18T16:54:25;-0.50;99.90
7196;DHT22;3639;51.308;5.624;2022-12-18T16:56:54;-0.40;99.90
7196;DHT22;3639;51.308;5.624;2022-12-18T16:59:20;-0.40;99.90
7196;DHT22;3639;51.308;5.624;2022-12-18T17:01:46;-0.40;99.90
7196;DHT22;3639;51.308;5.624;2022-12-18T17:04:12;-0.40;99.90
7196;DHT22;3639;51.308;5.624;2022-12-18T17:06:43;-0.40;99.90
7196;DHT22;3639;51.308;5.624;2022-12-18T17:09:13;-0.50;99.90
7196;DHT22;3639;51.308;5.624;2022-12-18T17:11:40;-0.40;99.90
7196;DHT22;3639;51.308;5.624;2022-12-18T17:14:14;-0.40;99.90
7196;DHT22;3639;51.308;5.624;2022-12-18T17:16:40;-0.40;99.90
7196;DHT22;3639;51.308;5.624;2022-12-18T17:19:05;-0.40;99.90
7196;DHT22;3639;51.308;5.624;2022-12-18T17:21:31;-0.40;99.90
7196;DHT22;3639;51.308;5.624;2022-12-18T17:24:00;-0.40;99.90
7196;DHT22;3639;51.308;5.624;2022-12-18T17:26:27;-0.40;99.90
7196;DHT22;3639;51.308;5.624;2022-12-18T17:28:55;-0.40;99.90
7196;DHT22;3639;51.308;5.624;2022-12-18T17:31:23;-0.40;99.90
7196;DHT22;3639;51.308;5.624;2022-12-18T17:33:49;-0.40;99.90
7196;DHT22;3639;51.308;5.624;2022-12-18T17:36:15;-0.40;99.90
7196;DHT22;3639;51.308;5.624;2022-12-18T17:38:42;-0.30;99.90
7196;DHT22;3639;51.308;5.624;2022-12-18T17:41:09;-0.30;99.90
7196;DHT22;3639;51.308;5.624;2022-12-18T17:43:36;-0.40;99.90
7196;DHT22;3639;51.308;5.624;2022-12-18T17:46:13;-0.30;99.90
7196;DHT22;3639;51.308;5.624;2022-12-18T17:48:39;-0.30;99.90
7196;DHT22;3639;51.308;5.624;2022-12-18T17:51:07;-0.30;99.90
7196;DHT22;3639;51.308;5.624;2022-12-18T17:53:34;-0.30;99.90
7196;DHT22;3639;51.308;5.624;2022-12-18T17:56:00;-0.30;99.90
7196;DHT22;3639;51.308;5.624;2022-12-18T17:58:27;-0.30;99.90
7196;DHT22;3639;51.308;5.624;2022-12-18T18:00:53;-0.30;99.90
7196;DHT22;3639;51.308;5.624;2022-12-18T18:03:20;-0.30;99.90
7196;DHT22;3639;51.308;5.624;2022-12-18T18:05:46;-0.30;99.90
7196;DHT22;3639;51.308;5.624;2022-12-18T18:08:11;-0.30;99.90
7196;DHT22;3639;51.308;5.624;2022-12-18T18:10:38;-0.30;99.90